Time;durP1;ratioP1;P1;durP2;ratioP2;P2;SDS_P1;SDS_P2;PMS_P1;PMS_P2;Temp;Humidity;BMP_temperature;BMP_pressure;BME280_temperature;BME280_humidity;BME280_pressure;Samples;Min_cycle;Max_cycle;Signal;HPM_P1;HPM_P2
2021/06/21 00:00:56;;;;;;;3.50;1.85;;;;;;;;;;5040326;28;20433;-83
2021/06/21 00:03:22;;;;;;;9.32;2.53;;;;;;;;;;5059897;28;20036;-84
2021/06/21 00:05:48;;;;;;;14.80;2.33;;;;;;;;;;5064208;28;20044;-84
2021/06/21 00:08:13;;;;;;;8.30;2.45;;;;;;;;;;5045511;28;20029;-83
2021/06/21 00:10:39;;;;;;;7.32;2.25;;;;;;;;;;5062119;28;20029;-83
2021/06/21 00:13:04;;;;;;;9.60;2.60;;;;;;;;;;5061068;28;20076;-82
2021/06/21 00:15:31;;;;;;;5.00;2.20;;;;;;;;;;5059931;28;20036;-82
2021/06/21 00:17:56;;;;;;;2.92;2.03;;;;;;;;;;5060630;28;20036;-84
2021/06/21 00:20:23;;;;;;;5.75;2.20;;;;;;;;;;5060941;28;20411;-83
2021/06/21 00:22:50;;;;;;;5.78;2.30;;;;;;;;;;5067858;28;20059;-82
2021/06/21 00:25:16;;;;;;;7.28;1.92;;;;;;;;;;5081869;28;20036;-82
2021/06/21 00:27:42;;;;;;;7.10;2.40;;;;;;;;;;5082817;28;20079;-82
2021/06/21 00:30:10;;;;;;;5.30;2.80;;;;;;;;;;5083307;28;20040;-83
2021/06/21 00:32:37;;;;;;;6.05;2.42;;;;;;;;;;5082578;28;20036;-81
2021/06/21 00:35:03;;;;;;;7.60;2.53;;;;;;;;;;5084211;28;20088;-83
2021/06/21 00:37:28;;;;;;;6.95;2.30;;;;;;;;;;5083717;28;20507;-83
2021/06/21 00:39:54;;;;;;;8.73;2.75;;;;;;;;;;5064752;28;20036;-84
2021/06/21 00:42:19;;;;;;;4.82;2.40;;;;;;;;;;5083317;28;20048;-84
2021/06/21 00:44:46;;;;;;;5.72;2.80;;;;;;;;;;5082135;28;20049;-84
2021/06/21 00:47:13;;;;;;;10.80;2.88;;;;;;;;;;5081650;28;20567;-84
2021/06/21 00:49:38;;;;;;;13.15;3.10;;;;;;;;;;5076022;28;20041;-84
2021/06/21 00:52:04;;;;;;;7.35;3.00;;;;;;;;;;5072806;28;20087;-85
2021/06/21 00:54:29;;;;;;;8.68;3.33;;;;;;;;;;5054801;28;20049;-84
2021/06/21 00:56:55;;;;;;;10.48;2.92;;;;;;;;;;5056469;28;20037;-84
2021/06/21 00:59:20;;;;;;;9.82;3.00;;;;;;;;;;5058434;28;20025;-84
2021/06/21 01:01:46;;;;;;;6.82;2.50;;;;;;;;;;5059068;28;20033;-84
2021/06/21 01:04:11;;;;;;;9.30;3.25;;;;;;;;;;5039279;28;20478;-84
2021/06/21 01:06:36;;;;;;;6.20;3.20;;;;;;;;;;5055395;28;20109;-84
2021/06/21 01:09:02;;;;;;;6.97;2.67;;;;;;;;;;5057033;28;20037;-84
2021/06/21 01:11:48;;;;;;;5.07;2.75;;;;;;;;;;5058058;28;20044;-84
2021/06/21 01:14:29;;;;;;;7.43;3.22;;;;;;;;;;5055374;28;20040;-84
2021/06/21 01:17:21;;;;;;;12.05;3.47;;;;;;;;;;5057294;28;20403;-83
2021/06/21 01:20:13;;;;;;;13.05;3.00;;;;;;;;;;5057036;28;20482;-83
2021/06/21 01:23:21;;;;;;;8.15;3.22;;;;;;;;;;5057399;28;20394;-84
2021/06/21 01:25:59;;;;;;;7.60;3.13;;;;;;;;;;5063191;28;20045;-84
2021/06/21 01:28:58;;;;;;;11.02;4.03;;;;;;;;;;5077444;28;20059;-84
2021/06/21 01:31:38;;;;;;;8.50;3.45;;;;;;;;;;5078203;28;20025;-83
2021/06/21 01:34:04;;;;;;;7.18;4.30;;;;;;;;;;5078066;28;20040;-84
2021/06/21 01:36:30;;;;;;;7.32;3.92;;;;;;;;;;5078070;28;20025;-83
2021/06/21 01:38:58;;;;;;;7.55;3.38;;;;;;;;;;5078621;28;20021;-84
2021/06/21 01:41:38;;;;;;;7.18;3.80;;;;;;;;;;5077579;28;20036;-84
2021/06/21 01:44:06;;;;;;;11.60;3.60;;;;;;;;;;5075998;28;20403;-83
2021/06/21 01:46:35;;;;;;;7.30;3.25;;;;;;;;;;5075336;28;20122;-83
2021/06/21 01:49:06;;;;;;;8.05;3.80;;;;;;;;;;5080590;28;20051;-83
2021/06/21 01:51:33;;;;;;;8.25;3.38;;;;;;;;;;5079960;28;20043;-83
2021/06/21 01:54:01;;;;;;;10.77;3.83;;;;;;;;;;5079558;28;20402;-83
2021/06/21 01:56:34;;;;;;;6.65;3.45;;;;;;;;;;5060930;28;20029;-83
2021/06/21 01:59:03;;;;;;;14.20;3.97;;;;;;;;;;5060175;28;20442;-83
2021/06/21 02:01:31;;;;;;;9.82;4.32;;;;;;;;;;5060047;28;20045;-83
2021/06/21 02:04:00;;;;;;;7.78;3.60;;;;;;;;;;5060213;28;20479;-83
2021/06/21 02:06:30;;;;;;;8.38;4.13;;;;;;;;;;5061240;28;20098;-83
2021/06/21 02:08:56;;;;;;;8.35;4.53;;;;;;;;;;5062740;28;20032;-83
2021/06/21 02:11:25;;;;;;;10.43;4.97;;;;;;;;;;5063982;28;20112;-83
2021/06/21 02:13:51;;;;;;;9.05;5.35;;;;;;;;;;5061054;28;20028;-83
2021/06/21 02:16:17;;;;;;;8.75;4.10;;;;;;;;;;5061334;28;20044;-80
2021/06/21 02:18:46;;;;;;;7.20;4.13;;;;;;;;;;5061100;28;20028;-78
2021/06/21 02:21:12;;;;;;;8.77;3.95;;;;;;;;;;5058769;28;20032;-78
2021/06/21 02:23:40;;;;;;;11.25;4.32;;;;;;;;;;5058632;28;20491;-78
2021/06/21 02:26:06;;;;;;;12.02;4.13;;;;;;;;;;5058155;28;20128;-80
2021/06/21 02:28:32;;;;;;;9.05;4.25;;;;;;;;;;5056988;28;20052;-78
2021/06/21 02:30:59;;;;;;;12.13;4.45;;;;;;;;;;5058038;28;20135;-78
2021/06/21 02:33:25;;;;;;;11.40;4.60;;;;;;;;;;5057831;28;20064;-79
2021/06/21 02:35:51;;;;;;;10.40;3.83;;;;;;;;;;5057925;28;20518;-79
2021/06/21 02:38:17;;;;;;;8.50;4.95;;;;;;;;;;5056608;28;20037;-80
2021/06/21 02:40:43;;;;;;;12.50;4.82;;;;;;;;;;5058066;28;20406;-79
2021/06/21 02:43:09;;;;;;;9.02;4.22;;;;;;;;;;5057381;28;20048;-78
2021/06/21 02:45:34;;;;;;;9.05;3.80;;;;;;;;;;5056853;28;20045;-77
2021/06/21 02:48:05;;;;;;;7.82;4.10;;;;;;;;;;5057695;28;20106;-77
2021/06/21 02:50:31;;;;;;;6.30;3.70;;;;;;;;;;5054602;28;20147;-77
2021/06/21 02:53:27;;;;;;;7.75;3.70;;;;;;;;;;5054196;28;20450;-77
2021/06/21 02:56:21;;;;;;;6.70;3.42;;;;;;;;;;5055352;28;20037;-77
2021/06/21 02:58:47;;;;;;;8.32;3.92;;;;;;;;;;5057311;28;20524;-78
2021/06/21 03:01:15;;;;;;;7.97;4.07;;;;;;;;;;5056907;28;20037;-81
2021/06/21 03:03:46;;;;;;;12.48;4.25;;;;;;;;;;5057867;28;20059;-81
2021/06/21 03:06:14;;;;;;;8.80;4.57;;;;;;;;;;5057603;28;20402;-78
2021/06/21 03:08:40;;;;;;;9.48;4.03;;;;;;;;;;5055437;28;20041;-79
2021/06/21 03:11:07;;;;;;;10.82;4.20;;;;;;;;;;5054972;28;20383;-78
2021/06/21 03:13:32;;;;;;;5.97;3.67;;;;;;;;;;5056311;28;20075;-77
2021/06/21 03:16:00;;;;;;;8.88;4.32;;;;;;;;;;5057061;28;20037;-77
2021/06/21 03:18:26;;;;;;;11.18;4.50;;;;;;;;;;5056193;28;20171;-77
2021/06/21 03:20:56;;;;;;;7.60;4.30;;;;;;;;;;5055477;28;20083;-77
2021/06/21 03:23:23;;;;;;;10.82;5.20;;;;;;;;;;5055055;28;20040;-77
2021/06/21 03:25:53;;;;;;;10.40;4.93;;;;;;;;;;5054821;28;20033;-77
2021/06/21 03:28:20;;;;;;;11.10;4.53;;;;;;;;;;5054859;28;20452;-77
2021/06/21 03:30:59;;;;;;;7.80;3.95;;;;;;;;;;5052275;28;20376;-76
2021/06/21 03:33:25;;;;;;;12.23;4.82;;;;;;;;;;5053562;28;20094;-77
2021/06/21 03:35:51;;;;;;;7.60;4.18;;;;;;;;;;5054879;28;20037;-76
2021/06/21 03:38:23;;;;;;;7.90;4.47;;;;;;;;;;5054200;28;20040;-76
2021/06/21 03:40:50;;;;;;;6.47;4.75;;;;;;;;;;5054976;28;20162;-76
2021/06/21 03:43:22;;;;;;;10.85;5.15;;;;;;;;;;5054930;28;20048;-76
2021/06/21 03:45:49;;;;;;;12.43;4.72;;;;;;;;;;5054436;28;20395;-76
2021/06/21 03:48:15;;;;;;;7.25;4.40;;;;;;;;;;5054674;28;20033;-76
2021/06/21 03:50:40;;;;;;;16.48;4.93;;;;;;;;;;5054535;28;20032;-76
2021/06/21 03:53:06;;;;;;;9.07;4.55;;;;;;;;;;5054366;28;20037;-76
2021/06/21 03:55:32;;;;;;;9.27;4.38;;;;;;;;;;5054260;28;20051;-76
2021/06/21 03:57:59;;;;;;;7.47;4.28;;;;;;;;;;5054737;28;20367;-76
2021/06/21 04:00:26;;;;;;;10.77;3.90;;;;;;;;;;5054271;28;20052;-76
2021/06/21 04:02:52;;;;;;;13.65;4.68;;;;;;;;;;5052881;28;20123;-76
2021/06/21 04:05:18;;;;;;;12.23;4.55;;;;;;;;;;5054139;28;20039;-76
2021/06/21 04:07:45;;;;;;;7.45;4.10;;;;;;;;;;5052209;28;20037;-76
2021/06/21 04:10:21;;;;;;;14.07;3.88;;;;;;;;;;5053557;28;20032;-76
2021/06/21 04:12:48;;;;;;;10.60;4.18;;;;;;;;;;5053880;28;20033;-76
2021/06/21 04:15:15;;;;;;;7.10;3.63;;;;;;;;;;5054038;28;20029;-76
2021/06/21 04:17:41;;;;;;;7.60;3.13;;;;;;;;;;5053730;28;20036;-76
2021/06/21 04:20:13;;;;;;;5.22;3.33;;;;;;;;;;5054008;28;20083;-76
2021/06/21 04:22:39;;;;;;;15.70;4.50;;;;;;;;;;5053779;28;20083;-76
2021/06/21 04:25:06;;;;;;;11.10;4.07;;;;;;;;;;5053940;28;20044;-76
2021/06/21 04:27:32;;;;;;;7.72;3.90;;;;;;;;;;5053615;28;20041;-76
2021/06/21 04:29:57;;;;;;;12.48;3.88;;;;;;;;;;5053848;28;20585;-76
2021/06/21 04:32:23;;;;;;;8.90;3.75;;;;;;;;;;5052439;28;20052;-76
2021/06/21 04:34:48;;;;;;;8.45;3.70;;;;;;;;;;5053732;28;20092;-76
2021/06/21 04:37:13;;;;;;;10.68;4.03;;;;;;;;;;5053693;28;20025;-76
2021/06/21 04:39:39;;;;;;;10.38;4.07;;;;;;;;;;5053398;28;20051;-76
2021/06/21 04:42:04;;;;;;;9.48;3.53;;;;;;;;;;5053716;28;20037;-76
2021/06/21 04:44:30;;;;;;;11.93;3.83;;;;;;;;;;5053361;28;20058;-76
2021/06/21 04:46:55;;;;;;;12.43;3.83;;;;;;;;;;5053111;28;20097;-76
2021/06/21 04:49:21;;;;;;;5.75;3.33;;;;;;;;;;5053382;28;20040;-77
2021/06/21 04:51:46;;;;;;;8.38;4.63;;;;;;;;;;5053596;28;20041;-76
2021/06/21 04:54:13;;;;;;;9.82;4.30;;;;;;;;;;5053008;28;20051;-76
2021/06/21 04:56:38;;;;;;;9.02;3.90;;;;;;;;;;5053424;28;20036;-76
2021/06/21 04:59:05;;;;;;;11.70;4.15;;;;;;;;;;5053369;28;20033;-76
2021/06/21 05:01:31;;;;;;;9.60;4.45;;;;;;;;;;5053209;28;20119;-76
2021/06/21 05:04:00;;;;;;;16.83;4.72;;;;;;;;;;5053567;28;20467;-77
2021/06/21 05:06:26;;;;;;;9.50;4.22;;;;;;;;;;5056186;28;20045;-78
2021/06/21 05:08:52;;;;;;;9.57;4.07;;;;;;;;;;5058398;28;20158;-78
2021/06/21 05:11:17;;;;;;;9.85;4.07;;;;;;;;;;5059201;28;20028;-78
2021/06/21 05:13:42;;;;;;;17.92;4.90;;;;;;;;;;5040798;28;20484;-81
2021/06/21 05:16:08;;;;;;;14.63;4.35;;;;;;;;;;5048896;28;20036;-79
2021/06/21 05:18:34;;;;;;;9.88;3.70;;;;;;;;;;5036293;28;20037;-77
2021/06/21 05:20:59;;;;;;;13.05;3.85;;;;;;;;;;5033574;28;20033;-78
2021/06/21 05:23:25;;;;;;;12.38;3.28;;;;;;;;;;5033870;28;20041;-77
2021/06/21 05:25:50;;;;;;;9.43;3.50;;;;;;;;;;5033043;28;20129;-77
2021/06/21 05:28:15;;;;;;;10.02;3.35;;;;;;;;;;5034363;28;20083;-78
2021/06/21 05:30:41;;;;;;;12.48;3.70;;;;;;;;;;5034764;28;20048;-75
2021/06/21 05:33:06;;;;;;;16.25;4.13;;;;;;;;;;5053206;28;20050;-75
2021/06/21 05:35:32;;;;;;;8.35;3.65;;;;;;;;;;5053568;28;20025;-76
2021/06/21 05:37:57;;;;;;;10.45;3.22;;;;;;;;;;5052315;28;20037;-75
2021/06/21 05:40:23;;;;;;;7.00;4.15;;;;;;;;;;5053365;28;20391;-75
2021/06/21 05:42:48;;;;;;;10.73;3.28;;;;;;;;;;5053365;28;20075;-75
2021/06/21 05:45:15;;;;;;;11.00;4.13;;;;;;;;;;5052339;28;20064;-76
2021/06/21 05:47:41;;;;;;;5.90;2.97;;;;;;;;;;5030825;28;20042;-75
2021/06/21 05:50:07;;;;;;;6.20;3.10;;;;;;;;;;5047026;28;20081;-76
2021/06/21 05:52:32;;;;;;;7.70;2.85;;;;;;;;;;5051679;28;20029;-77
2021/06/21 05:55:00;;;;;;;6.10;2.90;;;;;;;;;;5033898;28;20441;-76
2021/06/21 05:57:27;;;;;;;9.05;2.90;;;;;;;;;;5052626;28;20037;-76
2021/06/21 05:59:53;;;;;;;8.27;2.47;;;;;;;;;;5051629;28;20037;-76
2021/06/21 06:02:18;;;;;;;8.82;2.75;;;;;;;;;;5052568;28;20120;-74
2021/06/21 06:04:44;;;;;;;10.23;2.67;;;;;;;;;;5051720;28;20135;-75
2021/06/21 06:07:09;;;;;;;10.95;3.42;;;;;;;;;;5052541;28;20546;-76
2021/06/21 06:09:35;;;;;;;11.30;2.72;;;;;;;;;;5051985;28;20102;-74
2021/06/21 06:12:00;;;;;;;14.43;2.85;;;;;;;;;;5052476;28;20036;-74
2021/06/21 06:14:26;;;;;;;11.95;2.88;;;;;;;;;;5051981;28;20410;-74
2021/06/21 06:16:51;;;;;;;11.48;2.65;;;;;;;;;;5052249;28;20033;-74
2021/06/21 06:19:16;;;;;;;14.35;2.72;;;;;;;;;;5051416;28;20056;-74
2021/06/21 06:21:42;;;;;;;14.70;2.63;;;;;;;;;;5053633;28;20434;-74
2021/06/21 06:24:08;;;;;;;13.50;3.13;;;;;;;;;;5072287;28;20037;-74
2021/06/21 06:26:36;;;;;;;14.10;3.55;;;;;;;;;;5072323;28;20389;-74
2021/06/21 06:29:01;;;;;;;12.02;2.55;;;;;;;;;;5072298;28;20032;-74
2021/06/21 06:31:28;;;;;;;10.80;2.15;;;;;;;;;;5072264;28;20032;-74
2021/06/21 06:33:53;;;;;;;12.25;2.60;;;;;;;;;;5074116;28;20040;-74
2021/06/21 06:36:18;;;;;;;10.35;2.45;;;;;;;;;;5074449;28;20028;-74
2021/06/21 06:38:44;;;;;;;16.23;2.92;;;;;;;;;;5075412;28;20028;-74
2021/06/21 06:41:09;;;;;;;6.85;2.13;;;;;;;;;;5075958;28;20028;-74
2021/06/21 06:43:35;;;;;;;12.25;2.83;;;;;;;;;;5075838;28;20062;-74
2021/06/21 06:46:01;;;;;;;9.07;2.30;;;;;;;;;;5073906;28;20395;-74
2021/06/21 06:48:26;;;;;;;7.93;2.40;;;;;;;;;;5074693;28;20067;-74
2021/06/21 06:50:52;;;;;;;10.77;2.83;;;;;;;;;;5075857;28;20044;-73
2021/06/21 06:53:25;;;;;;;11.20;2.85;;;;;;;;;;5060401;28;20067;-73
2021/06/21 06:58:35;;;;;;;16.10;2.50;;;;;;;;;;5055148;28;20047;-75
2021/06/21 07:01:00;;;;;;;10.50;2.72;;;;;;;;;;5055496;28;20041;-76
2021/06/21 07:03:26;;;;;;;11.85;2.65;;;;;;;;;;5054897;28;20061;-75
2021/06/21 07:05:51;;;;;;;13.88;2.20;;;;;;;;;;5054822;28;20044;-74
2021/06/21 07:08:16;;;;;;;9.88;2.42;;;;;;;;;;5054967;28;20021;-75
2021/06/21 07:10:42;;;;;;;13.68;3.38;;;;;;;;;;5055439;28;20040;-76
2021/06/21 07:13:09;;;;;;;12.15;2.75;;;;;;;;;;5055166;28;20083;-76
2021/06/21 07:15:34;;;;;;;11.30;2.33;;;;;;;;;;5055824;28;20095;-77
2021/06/21 07:17:59;;;;;;;12.82;3.20;;;;;;;;;;5055167;28;20028;-76
2021/06/21 07:20:25;;;;;;;8.98;2.58;;;;;;;;;;5055145;28;20037;-75
2021/06/21 07:22:51;;;;;;;20.10;2.97;;;;;;;;;;5055009;28;20025;-76
2021/06/21 07:25:16;;;;;;;12.73;2.20;;;;;;;;;;5054725;28;20378;-77
2021/06/21 07:27:42;;;;;;;9.95;2.22;;;;;;;;;;5054623;28;20116;-76
2021/06/21 07:30:08;;;;;;;38.53;3.53;;;;;;;;;;5055026;28;20079;-75
2021/06/21 07:32:33;;;;;;;14.20;2.67;;;;;;;;;;5055681;28;20116;-77
2021/06/21 07:34:59;;;;;;;14.90;2.47;;;;;;;;;;5055356;28;20075;-75
2021/06/21 07:37:24;;;;;;;31.52;3.30;;;;;;;;;;5054949;28;20036;-75
2021/06/21 07:39:50;;;;;;;10.75;2.33;;;;;;;;;;5054396;28;20036;-76
2021/06/21 07:42:15;;;;;;;17.25;2.80;;;;;;;;;;5052347;28;20044;-75
2021/06/21 07:44:40;;;;;;;20.77;3.70;;;;;;;;;;5051875;28;20053;-75
2021/06/21 07:47:07;;;;;;;11.13;2.25;;;;;;;;;;5054094;28;20551;-75
2021/06/21 07:49:32;;;;;;;13.20;2.58;;;;;;;;;;5054557;28;20033;-75
2021/06/21 07:51:57;;;;;;;16.55;3.17;;;;;;;;;;5053645;28;20074;-75
2021/06/21 07:54:23;;;;;;;63.85;6.43;;;;;;;;;;5054030;28;20064;-75
2021/06/21 07:56:49;;;;;;;14.88;2.50;;;;;;;;;;5054225;28;20078;-75
2021/06/21 07:59:14;;;;;;;28.58;2.95;;;;;;;;;;5054301;28;20057;-75
2021/06/21 08:01:40;;;;;;;13.07;2.33;;;;;;;;;;5054459;28;20511;-75
2021/06/21 08:04:07;;;;;;;9.82;2.53;;;;;;;;;;5053980;28;20039;-75
2021/06/21 08:06:32;;;;;;;8.10;2.10;;;;;;;;;;5054035;28;20044;-75
2021/06/21 08:08:58;;;;;;;16.55;2.13;;;;;;;;;;5052750;28;20048;-75
2021/06/21 08:11:23;;;;;;;16.05;2.95;;;;;;;;;;5053890;28;20048;-74
2021/06/21 08:13:49;;;;;;;8.82;3.20;;;;;;;;;;5053746;28;20116;-75
2021/06/21 08:16:14;;;;;;;20.23;5.32;;;;;;;;;;5054239;28;20037;-75
2021/06/21 08:18:40;;;;;;;12.05;2.40;;;;;;;;;;5052723;28;20033;-75
2021/06/21 08:21:05;;;;;;;9.15;2.08;;;;;;;;;;5052912;28;20044;-75
2021/06/21 08:23:33;;;;;;;7.53;1.70;;;;;;;;;;5051588;28;20441;-76
2021/06/21 08:26:00;;;;;;;15.02;2.33;;;;;;;;;;5053180;28;20044;-76
2021/06/21 08:28:25;;;;;;;8.80;1.88;;;;;;;;;;5053148;28;20039;-75
2021/06/21 08:30:51;;;;;;;7.55;2.28;;;;;;;;;;5053515;28;20037;-75
2021/06/21 08:33:16;;;;;;;7.88;2.45;;;;;;;;;;5053663;28;20044;-75
2021/06/21 08:35:42;;;;;;;10.20;2.60;;;;;;;;;;5053868;28;20108;-75
2021/06/21 08:38:08;;;;;;;9.48;2.30;;;;;;;;;;5042369;28;20025;-76
2021/06/21 08:40:34;;;;;;;7.28;1.75;;;;;;;;;;5038110;28;20041;-75
2021/06/21 08:43:02;;;;;;;13.05;2.35;;;;;;;;;;5033622;28;20040;-75
2021/06/21 08:45:30;;;;;;;17.98;2.53;;;;;;;;;;5033442;28;20045;-77
2021/06/21 08:47:56;;;;;;;11.38;3.00;;;;;;;;;;5033187;28;20057;-75
2021/06/21 08:50:23;;;;;;;7.75;2.25;;;;;;;;;;5033605;28;20526;-75
2021/06/21 08:52:49;;;;;;;9.73;1.70;;;;;;;;;;5047129;28;20047;-75
2021/06/21 08:55:14;;;;;;;14.10;2.60;;;;;;;;;;5052490;28;20451;-75
2021/06/21 08:57:44;;;;;;;16.88;1.98;;;;;;;;;;5053193;28;20047;-75
2021/06/21 09:00:11;;;;;;;20.92;5.63;;;;;;;;;;5053203;28;20090;-74
2021/06/21 09:02:36;;;;;;;12.60;2.55;;;;;;;;;;5053314;28;20045;-75
2021/06/21 09:05:06;;;;;;;9.10;2.42;;;;;;;;;;5052853;28;20071;-75
2021/06/21 09:07:32;;;;;;;6.32;2.10;;;;;;;;;;5052744;28;20083;-75
2021/06/21 09:10:04;;;;;;;7.60;1.92;;;;;;;;;;5052575;28;20483;-75
2021/06/21 09:12:31;;;;;;;5.88;1.70;;;;;;;;;;5053032;28;20510;-75
2021/06/21 09:14:59;;;;;;;7.55;2.22;;;;;;;;;;5051558;28;20400;-74
2021/06/21 09:17:29;;;;;;;5.13;1.85;;;;;;;;;;5035343;28;20032;-74
2021/06/21 09:20:00;;;;;;;8.05;1.92;;;;;;;;;;5052832;28;20048;-74
2021/06/21 09:22:39;;;;;;;12.32;1.85;;;;;;;;;;5052286;28;20139;-75
2021/06/21 09:25:16;;;;;;;21.88;12.73;;;;;;;;;;5052740;28;20045;-75
2021/06/21 09:27:52;;;;;;;15.60;3.53;;;;;;;;;;5051617;28;20037;-75
2021/06/21 09:30:19;;;;;;;11.07;2.08;;;;;;;;;;5051519;28;20044;-75
2021/06/21 09:32:49;;;;;;;5.25;1.85;;;;;;;;;;5052774;28;20041;-74
2021/06/21 09:35:30;;;;;;;4.82;1.75;;;;;;;;;;5047277;28;20086;-75
2021/06/21 09:38:00;;;;;;;9.32;1.83;;;;;;;;;;5048132;28;20032;-74
2021/06/21 09:40:29;;;;;;;6.75;1.73;;;;;;;;;;5052855;28;20032;-75
2021/06/21 09:42:54;;;;;;;9.07;2.08;;;;;;;;;;5052480;28;20052;-75
2021/06/21 09:45:20;;;;;;;11.27;2.78;;;;;;;;;;5052474;28;20040;-74
2021/06/21 09:47:46;;;;;;;6.97;1.80;;;;;;;;;;5052830;28;20037;-74
2021/06/21 09:50:23;;;;;;;13.85;2.20;;;;;;;;;;5052859;28;20467;-74
2021/06/21 09:52:53;;;;;;;11.07;1.90;;;;;;;;;;5052721;28;20120;-75
2021/06/21 09:55:39;;;;;;;10.88;1.95;;;;;;;;;;5052190;28;20455;-75
2021/06/21 09:58:09;;;;;;;11.30;1.70;;;;;;;;;;5052727;28;20037;-75
2021/06/21 10:01:09;;;;;;;7.32;2.63;;;;;;;;;;5052452;28;20040;-75
2021/06/21 10:03:40;;;;;;;8.65;2.03;;;;;;;;;;5047789;28;20387;-77
2021/06/21 10:06:10;;;;;;;7.30;1.70;;;;;;;;;;5041302;28;20025;-76
2021/06/21 10:08:42;;;;;;;6.75;2.30;;;;;;;;;;5041663;28;20036;-76
2021/06/21 10:11:34;;;;;;;6.45;1.42;;;;;;;;;;5043805;28;20542;-76
2021/06/21 10:14:06;;;;;;;12.30;1.80;;;;;;;;;;5044483;28;20033;-77
2021/06/21 10:16:32;;;;;;;6.65;1.73;;;;;;;;;;5047535;28;20032;-78
2021/06/21 10:18:58;;;;;;;13.65;1.80;;;;;;;;;;5049134;28;20036;-77
2021/06/21 10:21:25;;;;;;;8.50;1.90;;;;;;;;;;5049860;28;20048;-75
2021/06/21 10:23:51;;;;;;;7.22;2.08;;;;;;;;;;5045083;28;20045;-78
2021/06/21 10:26:17;;;;;;;9.10;2.20;;;;;;;;;;5049458;28;20548;-79
2021/06/21 10:28:44;;;;;;;8.07;1.95;;;;;;;;;;5045921;28;20116;-78
2021/06/21 10:31:10;;;;;;;7.57;1.77;;;;;;;;;;5046140;28;20487;-79
2021/06/21 10:33:36;;;;;;;11.82;2.17;;;;;;;;;;5054742;28;20119;-81
2021/06/21 10:36:06;;;;;;;9.93;2.28;;;;;;;;;;5054997;28;20068;-81
2021/06/21 10:38:32;;;;;;;7.03;1.67;;;;;;;;;;5058889;28;20044;-81
2021/06/21 10:41:01;;;;;;;10.25;1.63;;;;;;;;;;5048046;28;20115;-78
2021/06/21 10:43:48;;;;;;;5.35;1.55;;;;;;;;;;5043572;28;20041;-76
2021/06/21 10:46:19;;;;;;;8.43;1.60;;;;;;;;;;5045469;28;20506;-77
2021/06/21 10:48:57;;;;;;;7.85;1.95;;;;;;;;;;5056301;28;20043;-77
2021/06/21 10:51:36;;;;;;;6.82;1.50;;;;;;;;;;5057520;28;20041;-80
2021/06/21 10:54:03;;;;;;;5.47;2.08;;;;;;;;;;5057655;28;20048;-78
2021/06/21 10:56:45;;;;;;;11.35;1.60;;;;;;;;;;5058188;28;20033;-81
2021/06/21 10:59:18;;;;;;;7.38;1.80;;;;;;;;;;5047522;28;20056;-80
2021/06/21 11:01:51;;;;;;;8.77;1.73;;;;;;;;;;5041576;28;20097;-82
2021/06/21 11:04:32;;;;;;;6.78;1.55;;;;;;;;;;5049801;28;20124;-82
2021/06/21 11:07:14;;;;;;;17.48;1.73;;;;;;;;;;5054392;28;20029;-79
2021/06/21 11:09:47;;;;;;;5.05;2.00;;;;;;;;;;5048500;28;20068;-79
2021/06/21 11:12:22;;;;;;;8.63;2.17;;;;;;;;;;5045050;28;20029;-77
2021/06/21 11:15:03;;;;;;;6.43;2.13;;;;;;;;;;5033270;28;20028;-76
2021/06/21 11:17:30;;;;;;;12.13;2.08;;;;;;;;;;5044548;28;20044;-76
2021/06/21 11:19:56;;;;;;;16.48;2.42;;;;;;;;;;5042836;28;20455;-76
2021/06/21 11:22:43;;;;;;;5.50;1.55;;;;;;;;;;5044296;28;20033;-77
2021/06/21 11:25:49;;;;;;;7.38;1.60;;;;;;;;;;5042635;28;20087;-75
2021/06/21 11:28:36;;;;;;;10.15;2.25;;;;;;;;;;5022086;28;20044;-76
2021/06/21 11:31:25;;;;;;;4.70;1.77;;;;;;;;;;5042705;28;20448;-76
2021/06/21 11:33:53;;;;;;;6.97;1.38;;;;;;;;;;5043850;28;20363;-76
2021/06/21 11:36:37;;;;;;;6.68;1.67;;;;;;;;;;5054900;28;20032;-76
2021/06/21 11:39:28;;;;;;;6.95;1.48;;;;;;;;;;5053094;28;20475;-76
2021/06/21 11:42:02;;;;;;;8.48;2.95;;;;;;;;;;5054674;28;20048;-76
2021/06/21 11:44:37;;;;;;;5.13;1.58;;;;;;;;;;5053569;28;20057;-76
2021/06/21 11:47:28;;;;;;;11.73;1.77;;;;;;;;;;5054177;28;20076;-76
2021/06/21 11:49:56;;;;;;;11.30;1.95;;;;;;;;;;5051271;28;20041;-76
2021/06/21 11:52:27;;;;;;;100.93;58.45;;;;;;;;;;5053424;28;20095;-76
2021/06/21 11:54:55;;;;;;;16.35;9.15;;;;;;;;;;5053530;28;20478;-76
2021/06/21 11:57:24;;;;;;;9.70;3.25;;;;;;;;;;5054721;28;20028;-76
2021/06/21 11:59:51;;;;;;;22.75;7.90;;;;;;;;;;5054337;28;20390;-76
2021/06/21 12:02:21;;;;;;;5.88;1.98;;;;;;;;;;5054357;28;20095;-76
2021/06/21 12:04:50;;;;;;;7.13;2.28;;;;;;;;;;5054302;28;20047;-76
2021/06/21 12:07:33;;;;;;;6.88;2.38;;;;;;;;;;5054002;28;20106;-76
2021/06/21 12:10:01;;;;;;;5.93;1.80;;;;;;;;;;5054049;28;20040;-76
2021/06/21 12:12:34;;;;;;;4.20;1.77;;;;;;;;;;5054065;28;20029;-76
2021/06/21 12:15:01;;;;;;;4.60;1.60;;;;;;;;;;5053832;28;20033;-76
2021/06/21 12:17:28;;;;;;;4.57;1.60;;;;;;;;;;5054156;28;20021;-76
2021/06/21 12:20:09;;;;;;;3.78;1.40;;;;;;;;;;5053994;28;20078;-75
2021/06/21 12:22:38;;;;;;;9.00;2.13;;;;;;;;;;5053956;28;20479;-76
2021/06/21 12:25:06;;;;;;;7.68;2.28;;;;;;;;;;5053417;28;20017;-76
2021/06/21 12:27:32;;;;;;;7.05;2.17;;;;;;;;;;5053800;28;20039;-76
2021/06/21 12:29:58;;;;;;;7.53;1.58;;;;;;;;;;5052742;28;20087;-76
2021/06/21 12:32:29;;;;;;;8.48;2.08;;;;;;;;;;5052618;28;20044;-76
2021/06/21 12:34:55;;;;;;;9.55;3.00;;;;;;;;;;5053935;28;20032;-76
2021/06/21 12:37:32;;;;;;;7.70;1.83;;;;;;;;;;5053375;28;20600;-76
2021/06/21 12:40:11;;;;;;;6.38;1.60;;;;;;;;;;5052168;28;20075;-76
2021/06/21 12:42:36;;;;;;;9.35;1.80;;;;;;;;;;5053687;28;20546;-76
2021/06/21 12:45:10;;;;;;;9.75;1.52;;;;;;;;;;5053445;28;20128;-76
2021/06/21 12:47:46;;;;;;;5.43;1.42;;;;;;;;;;5050238;28;20037;-78
2021/06/21 12:50:14;;;;;;;8.77;1.90;;;;;;;;;;5054103;28;20068;-77
2021/06/21 12:52:44;;;;;;;3.95;1.60;;;;;;;;;;5051853;28;20082;-77
2021/06/21 12:55:13;;;;;;;8.55;2.03;;;;;;;;;;5052489;28;20051;-76
2021/06/21 12:58:04;;;;;;;8.07;1.77;;;;;;;;;;5053380;28;20094;-76
2021/06/21 13:00:45;;;;;;;15.68;1.92;;;;;;;;;;5038650;28;20037;-75
2021/06/21 13:03:22;;;;;;;6.10;1.35;;;;;;;;;;5033103;28;20029;-75
2021/06/21 13:05:49;;;;;;;9.52;1.50;;;;;;;;;;5033615;28;20079;-77
2021/06/21 13:08:30;;;;;;;6.82;1.60;;;;;;;;;;5033214;28;20124;-75
2021/06/21 13:11:04;;;;;;;4.88;1.42;;;;;;;;;;5033088;28;20053;-76
2021/06/21 13:13:40;;;;;;;7.35;1.70;;;;;;;;;;5032977;28;20087;-74
2021/06/21 13:16:14;;;;;;;5.68;1.10;;;;;;;;;;5032018;28;20043;-75
2021/06/21 13:18:52;;;;;;;3.67;1.27;;;;;;;;;;5033174;28;20037;-75
2021/06/21 13:21:46;;;;;;;6.60;1.67;;;;;;;;;;5033214;28;20034;-77
2021/06/21 13:24:29;;;;;;;9.30;1.70;;;;;;;;;;5052399;28;20041;-78
2021/06/21 13:26:54;;;;;;;7.65;1.40;;;;;;;;;;5058911;28;20127;-80
2021/06/21 13:29:30;;;;;;;11.90;1.63;;;;;;;;;;5063556;28;20037;-79
2021/06/21 13:32:01;;;;;;;4.55;1.10;;;;;;;;;;5047863;28;20506;-74
2021/06/21 13:34:40;;;;;;;11.35;1.90;;;;;;;;;;5042477;28;20046;-77
2021/06/21 13:37:06;;;;;;;3.15;1.10;;;;;;;;;;5052464;28;20028;-77
2021/06/21 13:39:34;;;;;;;7.35;1.40;;;;;;;;;;5053676;28;20512;-77
2021/06/21 13:42:02;;;;;;;5.60;1.90;;;;;;;;;;5053244;28;20498;-77
2021/06/21 13:44:27;;;;;;;5.47;1.35;;;;;;;;;;5055404;28;20052;-74
2021/06/21 13:46:54;;;;;;;6.90;1.50;;;;;;;;;;5056909;28;20492;-77
2021/06/21 13:49:19;;;;;;;9.80;1.45;;;;;;;;;;5057342;28;20041;-76
2021/06/21 13:51:55;;;;;;;5.82;1.50;;;;;;;;;;5055960;28;20040;-76
2021/06/21 13:54:23;;;;;;;5.35;1.20;;;;;;;;;;5056037;28;20033;-76
2021/06/21 13:56:49;;;;;;;10.35;1.58;;;;;;;;;;5061209;28;20033;-78
2021/06/21 13:59:14;;;;;;;9.18;1.52;;;;;;;;;;5063361;28;20528;-81
2021/06/21 14:01:53;;;;;;;8.25;1.40;;;;;;;;;;5063145;28;20517;-80
2021/06/21 14:04:19;;;;;;;5.63;1.55;;;;;;;;;;5062986;28;20502;-81
2021/06/21 14:06:46;;;;;;;5.70;1.25;;;;;;;;;;5062059;28;20044;-81
2021/06/21 14:09:13;;;;;;;6.25;1.65;;;;;;;;;;5060579;28;20029;-80
2021/06/21 14:11:38;;;;;;;3.50;1.27;;;;;;;;;;5063143;28;20061;-81
2021/06/21 14:14:05;;;;;;;2.53;1.08;;;;;;;;;;5062137;28;20037;-80
2021/06/21 14:16:30;;;;;;;4.32;1.45;;;;;;;;;;5062820;28;20107;-80
2021/06/21 14:18:57;;;;;;;5.95;1.85;;;;;;;;;;5061467;28;20029;-80
2021/06/21 14:21:26;;;;;;;3.53;1.20;;;;;;;;;;5064384;28;20037;-80
2021/06/21 14:23:52;;;;;;;5.45;1.25;;;;;;;;;;5081963;28;20040;-80
2021/06/21 14:26:19;;;;;;;7.43;1.20;;;;;;;;;;5083821;28;20037;-81
2021/06/21 14:28:46;;;;;;;4.07;1.05;;;;;;;;;;5087038;28;20394;-81
2021/06/21 14:31:12;;;;;;;1.63;0.90;;;;;;;;;;5089995;28;20040;-81
2021/06/21 14:33:38;;;;;;;4.22;1.17;;;;;;;;;;5091071;28;20039;-79
2021/06/21 14:36:05;;;;;;;6.18;1.00;;;;;;;;;;5086830;28;20052;-80
2021/06/21 14:38:30;;;;;;;5.00;1.13;;;;;;;;;;5088712;28;20040;-79
2021/06/21 14:40:56;;;;;;;3.70;1.20;;;;;;;;;;5075696;28;20055;-80
2021/06/21 14:43:21;;;;;;;3.85;1.00;;;;;;;;;;5067495;28;20029;-80
2021/06/21 14:45:48;;;;;;;5.25;1.13;;;;;;;;;;5066057;28;20049;-79
2021/06/21 14:48:15;;;;;;;3.92;1.10;;;;;;;;;;5065982;28;20037;-79
2021/06/21 14:50:41;;;;;;;3.42;1.00;;;;;;;;;;5064275;28;20055;-80
2021/06/21 14:53:07;;;;;;;6.03;1.10;;;;;;;;;;5063215;28;20139;-79